createdAt,value
2022-10-04T00:00:01.662Z,89.63
2022-10-04T00:01:01.676Z,89.67
2022-10-04T00:02:01.725Z,89.67
2022-10-04T00:03:01.748Z,89.64
2022-10-04T00:04:01.613Z,89.59
2022-10-04T00:05:01.611Z,89.62
2022-10-04T00:06:01.586Z,89.59
2022-10-04T00:07:01.581Z,89.70
2022-10-04T00:08:01.580Z,89.73
2022-10-04T00:09:01.654Z,89.79
2022-10-04T00:10:01.552Z,89.80
2022-10-04T00:11:01.546Z,89.86
2022-10-04T00:12:01.573Z,89.92
2022-10-04T00:13:01.523Z,89.88
2022-10-04T00:14:01.516Z,89.91
2022-10-04T00:15:01.561Z,89.88
2022-10-04T00:16:01.506Z,89.87
2022-10-04T00:17:01.479Z,89.95
2022-10-04T00:18:01.486Z,89.99
2022-10-04T00:19:01.483Z,90.01
2022-10-04T00:20:01.509Z,90.01
2022-10-04T00:21:01.446Z,90.02
2022-10-04T00:22:01.451Z,90.03
2022-10-04T00:23:01.438Z,90.04
2022-10-04T00:24:01.497Z,90.05
2022-10-04T00:25:01.405Z,90.03
2022-10-04T00:26:01.398Z,89.98
2022-10-04T00:27:01.407Z,89.97
2022-10-04T00:28:01.441Z,89.96
2022-10-04T00:29:01.411Z,89.96
2022-10-04T00:30:01.405Z,90.00
2022-10-04T00:31:01.388Z,90.01
2022-10-04T00:32:01.371Z,90.07
2022-10-04T00:33:01.376Z,90.12
2022-10-04T00:34:01.356Z,90.15
2022-10-04T00:35:01.352Z,90.17
2022-10-04T00:36:01.333Z,90.08
2022-10-04T00:37:01.288Z,90.00
2022-10-04T00:38:01.373Z,89.97
2022-10-04T00:39:01.367Z,89.97
2022-10-04T00:40:01.278Z,89.89
2022-10-04T00:41:01.268Z,89.95
2022-10-04T00:42:01.238Z,90.00
2022-10-04T00:43:01.263Z,90.05
2022-10-04T00:44:01.220Z,90.13
2022-10-04T00:45:01.272Z,90.21
2022-10-04T00:46:01.244Z,90.23
2022-10-04T00:47:01.188Z,90.21
2022-10-04T00:48:01.208Z,90.19
2022-10-04T00:49:01.189Z,90.25
2022-10-04T00:50:01.157Z,90.20
2022-10-04T00:51:01.205Z,90.13
2022-10-04T00:52:01.157Z,90.15
2022-10-04T00:53:01.139Z,90.12
2022-10-04T00:54:01.120Z,89.97
2022-10-04T00:55:01.123Z,89.76
2022-10-04T00:56:01.098Z,89.64
2022-10-04T00:57:01.139Z,89.54
2022-10-04T00:58:01.088Z,89.51
2022-10-04T00:59:01.074Z,89.53
2022-10-04T01:00:01.057Z,89.63
2022-10-04T01:01:01.176Z,89.75
2022-10-04T01:02:01.098Z,89.84
2022-10-04T01:03:01.042Z,89.89
2022-10-04T01:04:01.029Z,89.88
2022-10-04T01:05:01.069Z,89.88
2022-10-04T01:06:01.063Z,89.92
2022-10-04T01:07:01.052Z,89.96
2022-10-04T01:08:00.986Z,89.97
2022-10-04T01:09:01.045Z,90.01
2022-10-04T01:10:00.972Z,90.07
2022-10-04T01:11:00.996Z,90.13
2022-10-04T01:12:00.958Z,90.16
2022-10-04T01:13:01.012Z,90.25
2022-10-04T01:14:00.951Z,90.42
2022-10-04T01:15:00.920Z,90.48
2022-10-04T01:16:00.948Z,90.54
2022-10-04T01:17:00.909Z,90.50
2022-10-04T01:18:02.085Z,90.49
2022-10-04T01:19:00.978Z,90.57
2022-10-04T01:20:00.916Z,90.72
2022-10-04T01:21:00.917Z,90.79
2022-10-04T01:22:00.848Z,90.79
2022-10-04T01:23:01.127Z,90.79
2022-10-04T01:24:00.883Z,90.87
2022-10-04T01:25:00.838Z,90.90
2022-10-04T01:26:00.823Z,90.87
2022-10-04T01:27:00.800Z,90.82
2022-10-04T01:28:00.885Z,90.75
2022-10-04T01:29:00.833Z,90.68
2022-10-04T01:30:00.774Z,90.59
2022-10-04T01:31:00.803Z,90.48
2022-10-04T01:32:00.760Z,90.44
2022-10-04T01:33:00.747Z,90.40
2022-10-04T01:34:00.794Z,90.45
2022-10-04T01:35:00.734Z,90.50
2022-10-04T01:36:00.754Z,90.54
2022-10-04T01:37:00.710Z,90.57
2022-10-04T01:38:00.703Z,90.58
2022-10-04T01:39:00.741Z,90.52
2022-10-04T01:40:00.794Z,90.43
2022-10-04T01:41:00.679Z,90.42
2022-10-04T01:42:00.746Z,90.35
2022-10-04T01:43:00.720Z,90.35
2022-10-04T01:44:00.638Z,90.37
2022-10-04T01:45:00.630Z,90.35
2022-10-04T01:46:00.638Z,90.32
2022-10-04T01:47:00.678Z,90.31
2022-10-04T01:48:00.592Z,90.34
2022-10-04T01:49:00.639Z,90.42
2022-10-04T01:50:00.702Z,90.46
2022-10-04T01:51:00.567Z,90.55
2022-10-04T01:52:00.559Z,90.60
2022-10-04T01:53:00.639Z,90.64
2022-10-04T01:54:00.540Z,90.64
2022-10-04T01:55:00.531Z,90.62
2022-10-04T01:56:00.542Z,90.63
2022-10-04T01:57:00.532Z,90.58
2022-10-04T01:58:00.501Z,90.50
2022-10-04T01:59:00.551Z,90.46
2022-10-04T02:00:00.490Z,90.46
2022-10-04T02:01:00.565Z,90.46
2022-10-04T02:02:00.462Z,90.45
2022-10-04T02:03:00.998Z,90.47
2022-10-04T02:04:00.449Z,90.52
2022-10-04T02:05:00.568Z,90.58
2022-10-04T02:06:00.468Z,90.63
2022-10-04T02:07:00.419Z,90.68
2022-10-04T02:08:00.428Z,90.69
2022-10-04T02:09:00.406Z,90.71
2022-10-04T02:10:00.391Z,90.81
2022-10-04T02:11:00.469Z,90.85
2022-10-04T02:12:00.369Z,90.90
2022-10-04T02:13:00.380Z,90.97
2022-10-04T02:14:00.389Z,90.99
2022-10-04T02:15:00.377Z,91.02
2022-10-04T02:16:00.549Z,91.10
2022-10-04T02:17:00.332Z,91.17
2022-10-04T02:18:00.325Z,91.24
2022-10-04T02:19:00.300Z,91.28
2022-10-04T02:20:00.303Z,91.31
2022-10-04T02:21:00.355Z,91.33
2022-10-04T02:22:00.297Z,91.33
2022-10-04T02:23:00.300Z,91.29
2022-10-04T02:24:00.281Z,91.29
2022-10-04T02:25:00.293Z,91.26
2022-10-04T02:26:00.260Z,91.19
2022-10-04T02:27:00.249Z,91.15
2022-10-04T02:28:00.376Z,91.11
2022-10-04T02:29:00.216Z,91.02
2022-10-04T02:30:00.278Z,90.92
2022-10-04T02:31:00.198Z,90.78
2022-10-04T02:32:00.236Z,90.78
2022-10-04T02:33:00.166Z,90.85
2022-10-04T02:34:00.306Z,90.88
2022-10-04T02:35:00.185Z,90.89
2022-10-04T02:36:00.220Z,90.90
2022-10-04T02:37:00.141Z,90.85
2022-10-04T02:38:00.124Z,90.76
2022-10-04T02:39:00.175Z,90.66
2022-10-04T02:40:00.126Z,90.59
2022-10-04T02:41:00.097Z,90.59
2022-10-04T02:42:00.097Z,90.62
2022-10-04T02:43:00.089Z,90.60
2022-10-04T02:44:00.060Z,90.50
2022-10-04T02:45:00.098Z,90.32
2022-10-04T02:46:00.057Z,90.13
2022-10-04T02:47:00.026Z,90.00
2022-10-04T02:48:00.012Z,89.98
2022-10-04T02:49:00.035Z,89.96
2022-10-04T02:50:00.032Z,89.98
2022-10-04T02:51:00.031Z,90.04
2022-10-04T02:52:00.029Z,90.14
2022-10-04T02:52:59.992Z,90.34
2022-10-04T02:54:03.349Z,90.50
2022-10-04T02:54:59.966Z,90.63
2022-10-04T02:55:59.997Z,90.78
2022-10-04T02:57:00.074Z,90.91
2022-10-04T02:57:59.953Z,91.15
2022-10-04T02:58:59.978Z,91.31
2022-10-04T02:59:59.905Z,91.46
2022-10-04T03:00:59.993Z,91.55
2022-10-04T03:02:00.052Z,91.62
2022-10-04T03:02:59.875Z,91.71
2022-10-04T03:03:59.933Z,91.79
2022-10-04T03:04:59.900Z,91.87
2022-10-04T03:05:59.855Z,91.90
2022-10-04T03:06:59.839Z,91.94
2022-10-04T03:07:59.888Z,91.95
2022-10-04T03:08:59.868Z,91.98
2022-10-04T03:09:59.833Z,91.98
2022-10-04T03:10:59.795Z,91.96
2022-10-04T03:11:59.835Z,91.93
2022-10-04T03:12:59.828Z,91.89
2022-10-04T03:13:59.762Z,91.87
2022-10-04T03:14:59.757Z,91.83
2022-10-04T03:15:59.788Z,91.75
2022-10-04T03:16:59.746Z,91.63
2022-10-04T03:17:59.783Z,91.49
2022-10-04T03:18:59.726Z,91.38
2022-10-04T03:19:59.782Z,91.38
2022-10-04T03:20:59.753Z,91.35
2022-10-04T03:21:59.741Z,91.30
2022-10-04T03:22:59.708Z,91.22
2022-10-04T03:23:59.714Z,91.05
2022-10-04T03:24:59.759Z,90.87
2022-10-04T03:25:59.687Z,90.80
2022-10-04T03:26:59.700Z,90.67
2022-10-04T03:27:59.673Z,90.62
2022-10-04T03:28:59.625Z,90.59
2022-10-04T03:29:59.740Z,90.52
2022-10-04T03:30:59.735Z,90.60
2022-10-04T03:31:59.598Z,90.71
2022-10-04T03:32:59.661Z,90.83
2022-10-04T03:33:59.577Z,91.00
2022-10-04T03:34:59.580Z,91.05
2022-10-04T03:35:59.551Z,91.15
2022-10-04T03:36:59.612Z,91.20
2022-10-04T03:37:59.563Z,91.25
2022-10-04T03:38:59.530Z,91.26
2022-10-04T03:39:59.513Z,91.24
2022-10-04T03:40:59.521Z,91.23
2022-10-04T03:41:59.509Z,91.25
2022-10-04T03:42:59.541Z,91.28
2022-10-04T03:44:04.160Z,91.31
2022-10-04T03:44:59.475Z,91.32
2022-10-04T03:45:59.510Z,91.29
2022-10-04T03:46:59.450Z,91.19
2022-10-04T03:47:59.480Z,91.09
2022-10-04T03:48:59.600Z,91.09
2022-10-04T03:49:59.480Z,91.09
2022-10-04T03:50:59.408Z,91.11
2022-10-04T03:51:59.397Z,91.04
2022-10-04T03:52:59.511Z,90.85
2022-10-04T03:53:59.386Z,90.74
2022-10-04T03:54:59.378Z,90.71
2022-10-04T03:56:04.063Z,90.90
2022-10-04T03:56:59.374Z,91.23
2022-10-04T03:57:59.349Z,91.41
2022-10-04T03:58:59.390Z,91.51
2022-10-04T03:59:59.317Z,91.52
2022-10-04T04:00:59.397Z,91.52
2022-10-04T04:01:59.393Z,91.39
2022-10-04T04:02:59.302Z,91.33
2022-10-04T04:03:59.330Z,91.34
2022-10-04T04:04:59.306Z,91.32
2022-10-04T04:05:59.278Z,91.34
2022-10-04T04:06:59.252Z,91.46
2022-10-04T04:07:59.256Z,91.54
2022-10-04T04:08:59.333Z,91.57
2022-10-04T04:09:59.218Z,91.62
2022-10-04T04:10:59.214Z,91.62
2022-10-04T04:11:59.206Z,91.56
2022-10-04T04:12:59.202Z,91.36
2022-10-04T04:13:59.243Z,91.18
2022-10-04T04:14:59.199Z,91.03
2022-10-04T04:15:59.210Z,90.91
2022-10-04T04:16:59.175Z,90.76
2022-10-04T04:17:59.155Z,90.72
2022-10-04T04:18:59.318Z,90.67
2022-10-04T04:20:01.305Z,90.66
2022-10-04T04:20:59.239Z,90.67
2022-10-04T04:21:59.106Z,90.65
2022-10-04T04:22:59.164Z,90.68
2022-10-04T04:23:59.099Z,90.71
2022-10-04T04:24:59.080Z,90.73
2022-10-04T04:25:59.077Z,90.72
2022-10-04T04:26:59.061Z,90.74
2022-10-04T04:27:59.138Z,90.80
2022-10-04T04:28:59.095Z,90.86
2022-10-04T04:29:59.038Z,90.90
2022-10-04T04:30:59.044Z,90.96
2022-10-04T04:31:59.108Z,91.00
2022-10-04T04:32:59.020Z,90.99
2022-10-04T04:33:58.987Z,90.98
2022-10-04T04:34:59.037Z,90.99
2022-10-04T04:35:58.982Z,91.04
2022-10-04T04:36:58.984Z,91.10
2022-10-04T04:37:59.012Z,91.18
2022-10-04T04:38:59.062Z,91.22
2022-10-04T04:39:58.970Z,91.24
2022-10-04T04:40:58.924Z,91.20
2022-10-04T04:41:58.930Z,91.10
2022-10-04T04:42:58.987Z,90.91
2022-10-04T04:43:58.890Z,90.78
2022-10-04T04:44:58.928Z,90.75
2022-10-04T04:46:25.483Z,90.72
2022-10-04T04:46:58.916Z,90.74
2022-10-04T04:47:58.972Z,90.77
2022-10-04T04:48:58.860Z,90.77
2022-10-04T04:49:58.783Z,90.81
2022-10-04T04:50:58.852Z,90.87
2022-10-04T04:51:58.859Z,90.87
2022-10-04T04:52:58.805Z,90.90
2022-10-04T04:53:58.798Z,90.91
2022-10-04T04:54:58.752Z,90.90
2022-10-04T04:56:10.433Z,90.93
2022-10-04T04:56:58.728Z,91.06
2022-10-04T04:57:58.712Z,91.18
2022-10-04T04:58:58.690Z,91.34
2022-10-04T04:59:58.731Z,91.43
2022-10-04T05:00:58.795Z,91.49
2022-10-04T05:01:58.774Z,91.54
2022-10-04T05:02:59.138Z,91.59
2022-10-04T05:03:58.653Z,91.61
2022-10-04T05:04:58.653Z,91.63
2022-10-04T05:05:58.636Z,91.65
2022-10-04T05:06:58.676Z,91.68
2022-10-04T05:07:58.622Z,91.69
2022-10-04T05:08:58.650Z,91.74
2022-10-04T05:09:58.597Z,91.74
2022-10-04T05:10:58.571Z,91.77
2022-10-04T05:11:58.576Z,91.82
2022-10-04T05:12:58.580Z,91.86
2022-10-04T05:13:58.557Z,91.94
2022-10-04T05:14:58.594Z,92.05
2022-10-04T05:15:58.604Z,92.11
2022-10-04T05:16:58.518Z,92.12
2022-10-04T05:17:58.589Z,92.15
2022-10-04T05:18:58.601Z,92.17
2022-10-04T05:19:58.500Z,92.18
2022-10-04T05:20:58.491Z,92.17
2022-10-04T05:21:58.474Z,92.14
2022-10-04T05:22:58.514Z,92.14
2022-10-04T05:23:58.453Z,92.14
2022-10-04T05:24:58.456Z,92.14
2022-10-04T05:25:58.449Z,92.15
2022-10-04T05:26:58.418Z,92.19
2022-10-04T05:27:58.552Z,92.22
2022-10-04T05:28:58.398Z,92.24
2022-10-04T05:29:58.398Z,92.24
2022-10-04T05:30:58.466Z,92.23
2022-10-04T05:31:58.392Z,92.23
2022-10-04T05:32:58.360Z,92.24
2022-10-04T05:33:58.354Z,92.25
2022-10-04T05:34:58.403Z,92.26
2022-10-04T05:35:58.354Z,92.24
2022-10-04T05:36:58.333Z,92.21
2022-10-04T05:37:58.316Z,92.19
2022-10-04T05:38:58.311Z,92.18
2022-10-04T05:39:58.318Z,92.18
2022-10-04T05:40:58.355Z,92.16
2022-10-04T05:41:58.324Z,92.14
2022-10-04T05:42:58.270Z,92.13
2022-10-04T05:43:58.262Z,92.13
2022-10-04T05:44:58.249Z,92.16
2022-10-04T05:45:58.373Z,92.18
2022-10-04T05:46:58.239Z,92.21
2022-10-04T05:47:58.224Z,92.24
2022-10-04T05:48:58.210Z,92.27
2022-10-04T05:49:58.217Z,92.32
2022-10-04T05:50:58.191Z,92.34
2022-10-04T05:51:58.241Z,92.39
2022-10-04T05:52:58.169Z,92.41
2022-10-04T05:53:58.239Z,92.44
2022-10-04T05:54:58.150Z,92.44
2022-10-04T05:55:58.206Z,92.48
2022-10-04T05:56:58.130Z,92.49
2022-10-04T05:57:58.130Z,92.50
2022-10-04T05:58:58.116Z,92.55
2022-10-04T06:00:01.890Z,92.58
2022-10-04T06:00:58.186Z,92.60
2022-10-04T06:01:58.235Z,92.63
2022-10-04T06:02:58.126Z,92.63
2022-10-04T06:03:58.066Z,92.66
2022-10-04T06:04:58.159Z,92.67
2022-10-04T06:05:58.108Z,92.69
2022-10-04T06:06:58.102Z,92.70
2022-10-04T06:07:58.114Z,92.72
2022-10-04T06:08:58.069Z,92.72
2022-10-04T06:09:58.025Z,92.73
2022-10-04T06:10:58.005Z,92.75
2022-10-04T06:11:58.042Z,92.72
2022-10-04T06:12:57.985Z,92.75
2022-10-04T06:13:58.037Z,92.75
2022-10-04T06:14:57.992Z,92.76
2022-10-04T06:15:57.954Z,92.77
2022-10-04T06:16:58.015Z,92.79
2022-10-04T06:17:57.931Z,92.79
2022-10-04T06:18:57.973Z,92.80
2022-10-04T06:19:57.947Z,92.77
2022-10-04T06:20:57.901Z,92.79
2022-10-04T06:21:57.890Z,92.80
2022-10-04T06:22:57.895Z,92.78
2022-10-04T06:23:57.928Z,92.78
2022-10-04T06:24:57.910Z,92.80
2022-10-04T06:25:57.867Z,92.80
2022-10-04T06:26:57.895Z,92.80
2022-10-04T06:27:57.936Z,92.79
2022-10-04T06:28:57.823Z,92.80
2022-10-04T06:29:57.820Z,92.78
2022-10-04T06:30:57.805Z,92.78
2022-10-04T06:31:57.810Z,92.80
2022-10-04T06:32:57.918Z,92.79
2022-10-04T06:33:57.785Z,92.78
2022-10-04T06:34:57.760Z,92.77
2022-10-04T06:35:57.759Z,92.74
2022-10-04T06:36:57.788Z,92.72
2022-10-04T06:37:57.750Z,92.68
2022-10-04T06:39:00.921Z,92.65
2022-10-04T06:39:57.733Z,92.59
2022-10-04T06:40:57.702Z,92.52
2022-10-04T06:41:57.757Z,92.42
2022-10-04T06:42:57.697Z,92.28
2022-10-04T06:43:57.679Z,92.13
2022-10-04T06:44:57.660Z,91.97
2022-10-04T06:45:57.692Z,91.86
2022-10-04T06:46:57.691Z,91.77
2022-10-04T06:47:57.636Z,91.72
2022-10-04T06:48:57.662Z,91.70
2022-10-04T06:49:57.637Z,91.64
2022-10-04T06:50:57.600Z,91.60
2022-10-04T06:51:57.598Z,91.54
2022-10-04T06:52:57.591Z,91.51
2022-10-04T06:53:57.637Z,91.49
2022-10-04T06:54:57.604Z,91.50
2022-10-04T06:55:57.554Z,91.50
2022-10-04T06:56:57.606Z,91.49
2022-10-04T06:57:58.235Z,91.45
2022-10-04T06:58:57.519Z,91.38
2022-10-04T06:59:57.578Z,91.33
2022-10-04T07:00:57.546Z,91.25
2022-10-04T07:01:58.855Z,91.17
2022-10-04T07:02:57.533Z,91.14
2022-10-04T07:03:57.488Z,91.07
2022-10-04T07:05:08.055Z,90.94
2022-10-04T07:05:57.532Z,90.90
2022-10-04T07:06:57.502Z,90.81
2022-10-04T07:07:57.440Z,90.62
2022-10-04T07:08:57.427Z,90.38
2022-10-04T07:09:57.419Z,90.23
2022-10-04T07:10:57.412Z,90.23
2022-10-04T07:11:57.398Z,90.23
2022-10-04T07:12:57.439Z,90.24
2022-10-04T07:13:57.399Z,90.24
2022-10-04T07:14:57.456Z,90.12
2022-10-04T07:15:59.662Z,89.89
2022-10-04T07:16:57.343Z,89.62
2022-10-04T07:17:57.369Z,89.34
2022-10-04T07:18:57.377Z,89.26
2022-10-04T07:19:57.325Z,89.11
2022-10-04T07:20:57.318Z,88.85
2022-10-04T07:21:57.336Z,88.40
2022-10-04T07:22:57.285Z,88.28
2022-10-04T07:23:57.347Z,88.41
2022-10-04T07:24:57.269Z,88.50
2022-10-04T07:25:57.305Z,88.55
2022-10-04T07:26:57.289Z,88.53
2022-10-04T07:27:57.300Z,88.47
2022-10-04T07:28:57.224Z,88.13
2022-10-04T07:29:57.225Z,88.01
2022-10-04T07:30:57.316Z,88.01
2022-10-04T07:31:57.204Z,88.04
2022-10-04T07:32:57.204Z,87.97
2022-10-04T07:33:57.184Z,87.85
2022-10-04T07:34:57.166Z,87.74
2022-10-04T07:35:57.275Z,87.23
2022-10-04T07:36:57.146Z,87.11
2022-10-04T07:37:57.278Z,86.79
2022-10-04T07:38:57.131Z,86.67
2022-10-04T07:39:57.348Z,86.53
2022-10-04T07:40:57.147Z,86.26
2022-10-04T07:41:57.098Z,85.85
2022-10-04T07:42:57.145Z,85.37
2022-10-04T07:43:57.076Z,84.92
2022-10-04T07:44:57.065Z,84.59
2022-10-04T07:45:57.261Z,84.74
2022-10-04T07:46:57.043Z,85.14
2022-10-04T07:47:57.045Z,85.33
2022-10-04T07:48:57.071Z,85.26
2022-10-04T07:49:57.015Z,85.11
2022-10-04T07:50:57.054Z,85.49
2022-10-04T07:51:57.050Z,84.74
2022-10-04T07:52:56.980Z,84.93
2022-10-04T07:53:57.031Z,85.32
2022-10-04T07:54:57.019Z,85.48
2022-10-04T07:55:57.006Z,85.71
2022-10-04T07:56:56.947Z,86.49
2022-10-04T07:57:56.986Z,85.86
2022-10-04T07:58:56.967Z,85.42
2022-10-04T07:59:56.919Z,85.04
2022-10-04T08:00:56.919Z,84.80
2022-10-04T08:01:56.987Z,84.98
2022-10-04T08:02:56.936Z,84.87
2022-10-04T08:03:56.875Z,84.62
2022-10-04T08:04:57.036Z,84.14
2022-10-04T08:05:57.002Z,84.60
2022-10-04T08:06:56.900Z,84.61
2022-10-04T08:07:56.833Z,84.72
2022-10-04T08:08:56.828Z,84.68
2022-10-04T08:09:56.864Z,84.65
2022-10-04T08:10:57.553Z,84.82
2022-10-04T08:11:56.801Z,84.67
2022-10-04T08:12:56.785Z,84.38
2022-10-04T08:13:56.824Z,84.97
2022-10-04T08:14:56.770Z,85.31
2022-10-04T08:15:56.896Z,85.57
2022-10-04T08:16:56.741Z,85.65
2022-10-04T08:17:56.736Z,85.55
2022-10-04T08:18:56.728Z,85.21
2022-10-04T08:19:56.713Z,85.04
2022-10-04T08:20:56.703Z,85.10
2022-10-04T08:21:56.753Z,84.88
2022-10-04T08:22:56.683Z,84.82
2022-10-04T08:23:56.672Z,84.45
2022-10-04T08:24:56.711Z,84.18
2022-10-04T08:25:56.695Z,84.04
2022-10-04T08:26:56.639Z,84.21
2022-10-04T08:27:56.750Z,84.15
2022-10-04T08:28:56.639Z,84.54
2022-10-04T08:29:56.613Z,84.22
2022-10-04T08:30:56.722Z,83.69
2022-10-04T08:31:56.590Z,83.82
2022-10-04T08:32:56.583Z,82.77
2022-10-04T08:33:56.567Z,82.81
2022-10-04T08:34:56.581Z,81.74
2022-10-04T08:35:56.553Z,81.70
2022-10-04T08:36:56.595Z,80.99
2022-10-04T08:37:56.724Z,80.62
2022-10-04T08:38:56.540Z,80.20
2022-10-04T08:39:56.508Z,79.69
2022-10-04T08:40:56.575Z,80.25
2022-10-04T08:41:56.490Z,80.55
2022-10-04T08:42:56.511Z,80.16
2022-10-04T08:43:56.487Z,80.12
2022-10-04T08:44:56.474Z,80.34
2022-10-04T08:45:56.535Z,80.25
2022-10-04T08:46:56.507Z,79.87
2022-10-04T08:47:56.434Z,80.60
2022-10-04T08:48:56.433Z,80.53
2022-10-04T08:49:56.433Z,80.26
2022-10-04T08:50:56.412Z,80.68
2022-10-04T08:51:56.447Z,80.26
2022-10-04T08:52:56.394Z,80.10
2022-10-04T08:53:56.381Z,79.88
2022-10-04T08:54:56.415Z,79.95
2022-10-04T08:55:56.393Z,79.66
2022-10-04T08:56:56.347Z,80.23
2022-10-04T08:57:56.343Z,79.54
2022-10-04T08:58:56.331Z,79.05
2022-10-04T08:59:56.310Z,78.30
2022-10-04T09:00:56.355Z,78.14
2022-10-04T09:01:56.400Z,78.07
2022-10-04T09:02:56.372Z,78.03
2022-10-04T09:03:56.318Z,77.16
2022-10-04T09:04:56.266Z,76.56
2022-10-04T09:05:56.257Z,76.57
2022-10-04T09:06:56.243Z,76.32
2022-10-04T09:07:56.229Z,75.50
2022-10-04T09:08:56.263Z,74.83
2022-10-04T09:09:56.204Z,74.93
2022-10-04T09:10:56.211Z,75.54
2022-10-04T09:11:56.245Z,75.16
2022-10-04T09:12:56.237Z,75.19
2022-10-04T09:13:56.181Z,75.52
2022-10-04T09:14:56.212Z,75.51
2022-10-04T09:15:57.074Z,75.55
2022-10-04T09:16:56.148Z,75.83
2022-10-04T09:17:56.131Z,75.99
2022-10-04T09:18:56.128Z,75.67
2022-10-04T09:20:04.860Z,74.86
2022-10-04T09:20:56.197Z,74.61
2022-10-04T09:21:56.095Z,74.62
2022-10-04T09:22:56.108Z,74.58
2022-10-04T09:23:56.067Z,74.07
2022-10-04T09:24:56.058Z,74.34
2022-10-04T09:25:56.046Z,73.80
2022-10-04T09:26:56.090Z,73.55
2022-10-04T09:27:56.048Z,73.22
2022-10-04T09:28:56.092Z,73.28
2022-10-04T09:29:56.031Z,73.32
2022-10-04T09:30:56.043Z,72.81
2022-10-04T09:31:56.049Z,72.86
2022-10-04T09:32:55.988Z,72.86
2022-10-04T09:33:56.159Z,73.15
2022-10-04T09:34:55.965Z,73.27
2022-10-04T09:35:55.945Z,73.23
2022-10-04T09:36:55.945Z,73.24
2022-10-04T09:37:55.976Z,73.30
2022-10-04T09:39:11.761Z,73.03
2022-10-04T09:39:55.920Z,72.57
2022-10-04T09:40:55.904Z,72.61
2022-10-04T09:41:55.941Z,72.45
2022-10-04T09:42:55.884Z,73.15
2022-10-04T09:43:55.883Z,73.33
2022-10-04T09:44:55.883Z,73.87
2022-10-04T09:45:55.883Z,73.95
2022-10-04T09:46:56.833Z,73.69
2022-10-04T09:47:55.879Z,74.44
2022-10-04T09:48:55.906Z,74.57
2022-10-04T09:49:55.815Z,74.30
2022-10-04T09:50:55.801Z,73.71
2022-10-04T09:51:55.829Z,73.30
2022-10-04T09:52:55.791Z,73.00
2022-10-04T09:53:55.768Z,72.97
2022-10-04T09:54:55.761Z,72.04
2022-10-04T09:55:55.759Z,72.39
2022-10-04T09:56:55.738Z,72.44
2022-10-04T09:57:55.769Z,72.08
2022-10-04T09:58:55.726Z,72.11
2022-10-04T09:59:55.708Z,72.10
2022-10-04T10:00:55.698Z,71.69
2022-10-04T10:01:55.794Z,71.92
2022-10-04T10:02:55.831Z,72.14
2022-10-04T10:03:55.670Z,72.01
2022-10-04T10:04:55.664Z,72.32
2022-10-04T10:05:55.652Z,72.54
2022-10-04T10:06:55.638Z,72.05
2022-10-04T10:07:55.640Z,71.72
2022-10-04T10:08:55.671Z,71.01
2022-10-04T10:09:55.617Z,71.19
2022-10-04T10:10:55.599Z,70.68
2022-10-04T10:11:55.590Z,69.84
2022-10-04T10:12:55.575Z,69.25
2022-10-04T10:13:55.571Z,68.95
2022-10-04T10:14:55.603Z,68.28
2022-10-04T10:15:55.613Z,68.25
2022-10-04T10:16:55.547Z,67.62
2022-10-04T10:17:55.525Z,67.64
2022-10-04T10:18:55.579Z,67.83
2022-10-04T10:19:55.558Z,67.98
2022-10-04T10:20:55.505Z,67.02
2022-10-04T10:21:55.495Z,67.28
2022-10-04T10:22:55.480Z,68.00
2022-10-04T10:23:55.464Z,67.61
2022-10-04T10:24:58.390Z,67.33
2022-10-04T10:25:55.474Z,66.32
2022-10-04T10:26:55.445Z,66.28
2022-10-04T10:27:55.456Z,66.03
2022-10-04T10:28:55.471Z,66.39
2022-10-04T10:29:55.403Z,66.40
2022-10-04T10:30:55.491Z,66.24
2022-10-04T10:31:55.392Z,66.35
2022-10-04T10:32:55.379Z,66.19
2022-10-04T10:33:55.374Z,66.86
2022-10-04T10:34:55.413Z,67.63
2022-10-04T10:35:55.346Z,67.59
2022-10-04T10:36:55.333Z,67.28
2022-10-04T10:37:55.421Z,66.73
2022-10-04T10:38:55.321Z,65.95
2022-10-04T10:39:55.318Z,66.25
2022-10-04T10:40:55.312Z,65.51
2022-10-04T10:41:55.329Z,66.13
2022-10-04T10:42:55.325Z,66.14
2022-10-04T10:43:55.269Z,65.20
2022-10-04T10:44:55.257Z,65.49
2022-10-04T10:45:55.259Z,64.80
2022-10-04T10:46:55.289Z,64.51
2022-10-04T10:47:55.266Z,64.75
2022-10-04T10:48:55.225Z,64.38
2022-10-04T10:49:55.207Z,64.95
2022-10-04T10:50:55.199Z,64.23
2022-10-04T10:51:55.185Z,64.44
2022-10-04T10:52:55.225Z,64.19
2022-10-04T10:53:55.163Z,63.50
2022-10-04T10:54:55.165Z,63.31
2022-10-04T10:55:55.148Z,62.83
2022-10-04T10:56:55.138Z,62.83
2022-10-04T10:57:55.127Z,62.66
2022-10-04T10:58:55.169Z,61.69
2022-10-04T10:59:55.106Z,60.31
2022-10-04T11:00:55.093Z,60.83
2022-10-04T11:01:55.174Z,60.97
2022-10-04T11:03:07.171Z,61.14
2022-10-04T11:03:55.256Z,61.10
2022-10-04T11:04:55.118Z,60.72
2022-10-04T11:05:55.048Z,61.32
2022-10-04T11:06:55.035Z,62.40
2022-10-04T11:07:55.047Z,61.83
2022-10-04T11:08:55.062Z,61.64
2022-10-04T11:09:55.018Z,62.21
2022-10-04T11:10:55.010Z,62.38
2022-10-04T11:11:55.012Z,62.56
2022-10-04T11:12:54.984Z,62.50
2022-10-04T11:13:55.025Z,61.35
2022-10-04T11:14:54.999Z,60.46
2022-10-04T11:15:55.039Z,60.39
2022-10-04T11:16:54.949Z,60.12
2022-10-04T11:17:54.943Z,59.86
2022-10-04T11:18:54.918Z,60.85
2022-10-04T11:19:55.051Z,60.13
2022-10-04T11:20:54.933Z,59.91
2022-10-04T11:21:54.943Z,59.06
2022-10-04T11:22:54.909Z,58.49
2022-10-04T11:23:54.908Z,58.08
2022-10-04T11:24:54.918Z,58.50
2022-10-04T11:25:54.898Z,58.37
2022-10-04T11:26:54.849Z,58.52
2022-10-04T11:27:57.362Z,59.07
2022-10-04T11:28:54.842Z,58.27
2022-10-04T11:29:54.857Z,57.98
2022-10-04T11:30:54.894Z,57.65
2022-10-04T11:31:54.840Z,58.18
2022-10-04T11:32:54.850Z,58.41
2022-10-04T11:33:54.774Z,58.16
2022-10-04T11:34:54.775Z,57.90
2022-10-04T11:35:54.777Z,57.78
2022-10-04T11:36:54.741Z,57.39
2022-10-04T11:37:54.732Z,57.73
2022-10-04T11:38:54.776Z,57.58
2022-10-04T11:39:54.717Z,58.11
2022-10-04T11:40:54.757Z,57.47
2022-10-04T11:41:54.699Z,56.22
2022-10-04T11:42:54.683Z,56.49
2022-10-04T11:43:54.678Z,55.60
2022-10-04T11:44:54.700Z,56.06
2022-10-04T11:45:54.697Z,57.24
2022-10-04T11:46:54.728Z,57.23
2022-10-04T11:47:54.690Z,57.61
2022-10-04T11:48:54.660Z,58.05
2022-10-04T11:49:54.642Z,58.71
2022-10-04T11:50:54.674Z,58.71
2022-10-04T11:51:57.587Z,57.50
2022-10-04T11:52:54.594Z,57.19
2022-10-04T11:53:54.608Z,56.94
2022-10-04T11:54:54.603Z,56.42
2022-10-04T11:55:54.560Z,56.85
2022-10-04T11:56:54.601Z,55.72
2022-10-04T11:57:54.585Z,55.50
2022-10-04T11:58:54.535Z,55.35
2022-10-04T11:59:54.537Z,54.78
2022-10-04T12:00:54.577Z,55.44
2022-10-04T12:01:54.516Z,55.43
2022-10-04T12:02:54.557Z,55.98
2022-10-04T12:03:54.673Z,56.27
2022-10-04T12:04:54.563Z,56.27
2022-10-04T12:05:54.492Z,55.49
2022-10-04T12:06:54.464Z,54.84
2022-10-04T12:07:54.441Z,55.58
2022-10-04T12:08:54.502Z,55.52
2022-10-04T12:09:58.653Z,55.77
2022-10-04T12:10:54.422Z,54.77
2022-10-04T12:11:54.429Z,54.09
2022-10-04T12:12:54.402Z,53.53
2022-10-04T12:13:54.449Z,53.06
2022-10-04T12:14:54.371Z,52.14
2022-10-04T12:15:54.445Z,52.06
2022-10-04T12:16:54.363Z,52.45
2022-10-04T12:17:54.364Z,53.92
2022-10-04T12:18:54.378Z,54.53
2022-10-04T12:19:54.321Z,53.64
2022-10-04T12:20:54.314Z,53.45
2022-10-04T12:21:54.326Z,53.83
2022-10-04T12:22:54.341Z,55.20
2022-10-04T12:23:54.335Z,55.80
2022-10-04T12:24:54.283Z,55.72
2022-10-04T12:25:54.266Z,54.82
2022-10-04T12:26:54.262Z,54.41
2022-10-04T12:27:54.275Z,54.54
2022-10-04T12:28:54.256Z,54.31
2022-10-04T12:29:54.284Z,54.31
2022-10-04T12:30:54.222Z,53.93
2022-10-04T12:31:54.235Z,54.10
2022-10-04T12:32:57.716Z,53.41
2022-10-04T12:33:54.195Z,53.10
2022-10-04T12:34:54.233Z,52.24
2022-10-04T12:35:54.175Z,51.72
2022-10-04T12:36:54.221Z,51.32
2022-10-04T12:37:54.161Z,52.05
2022-10-04T12:38:54.143Z,51.65
2022-10-04T12:39:54.142Z,51.47
2022-10-04T12:40:54.182Z,52.93
2022-10-04T12:41:54.109Z,52.40
2022-10-04T12:42:54.121Z,53.88
2022-10-04T12:43:54.104Z,53.61
2022-10-04T12:44:54.085Z,53.32
2022-10-04T12:45:54.193Z,54.09
2022-10-04T12:46:54.116Z,54.55
2022-10-04T12:47:54.061Z,54.80
2022-10-04T12:48:54.104Z,54.68
2022-10-04T12:49:54.419Z,55.10
2022-10-04T12:50:54.023Z,55.12
2022-10-04T12:51:54.027Z,54.27